sensor_id;sensor_type;location;lat;lon;timestamp;temperature;humidity
66013;DHT22;52783;50.502;8.190;2022-08-01T00:00:19;20.80;76.00
66013;DHT22;52783;50.502;8.190;2022-08-01T00:02:45;20.80;76.20
66013;DHT22;52783;50.502;8.190;2022-08-01T00:05:11;20.80;76.40
66013;DHT22;52783;50.502;8.190;2022-08-01T00:07:37;20.80;76.30
66013;DHT22;52783;50.502;8.190;2022-08-01T00:10:05;20.60;77.00
66013;DHT22;52783;50.502;8.190;2022-08-01T00:12:30;20.70;77.20
66013;DHT22;52783;50.502;8.190;2022-08-01T00:14:56;20.60;77.50
66013;DHT22;52783;50.502;8.190;2022-08-01T00:17:21;20.60;77.50
66013;DHT22;52783;50.502;8.190;2022-08-01T00:19:47;20.60;77.40
66013;DHT22;52783;50.502;8.190;2022-08-01T00:22:13;20.70;77.50
66013;DHT22;52783;50.502;8.190;2022-08-01T00:24:38;20.60;77.50
66013;DHT22;52783;50.502;8.190;2022-08-01T00:27:04;20.60;77.70
66013;DHT22;52783;50.502;8.190;2022-08-01T00:29:29;20.60;77.70
66013;DHT22;52783;50.502;8.190;2022-08-01T00:31:55;20.50;77.90
66013;DHT22;52783;50.502;8.190;2022-08-01T00:34:20;20.50;77.90
66013;DHT22;52783;50.502;8.190;2022-08-01T00:36:46;20.50;78.60
66013;DHT22;52783;50.502;8.190;2022-08-01T00:39:12;20.40;79.10
66013;DHT22;52783;50.502;8.190;2022-08-01T00:41:38;20.40;79.20
66013;DHT22;52783;50.502;8.190;2022-08-01T00:44:06;20.40;80.30
66013;DHT22;52783;50.502;8.190;2022-08-01T00:46:32;20.40;80.50
66013;DHT22;52783;50.502;8.190;2022-08-01T00:49:00;20.20;81.10
66013;DHT22;52783;50.502;8.190;2022-08-01T00:51:26;20.20;81.70
66013;DHT22;52783;50.502;8.190;2022-08-01T00:53:52;20.20;82.60
66013;DHT22;52783;50.502;8.190;2022-08-01T00:56:23;20.20;83.60
66013;DHT22;52783;50.502;8.190;2022-08-01T00:58:51;20.10;84.90
66013;DHT22;52783;50.502;8.190;2022-08-01T01:01:17;20.10;85.40
66013;DHT22;52783;50.502;8.190;2022-08-01T01:03:43;20.20;85.60
66013;DHT22;52783;50.502;8.190;2022-08-01T01:06:25;20.20;85.20
66013;DHT22;52783;50.502;8.190;2022-08-01T01:14:26;20.10;84.90
66013;DHT22;52783;50.502;8.190;2022-08-01T01:16:53;20.10;84.80
66013;DHT22;52783;50.502;8.190;2022-08-01T01:19:23;20.20;84.00
66013;DHT22;52783;50.502;8.190;2022-08-01T01:22:06;20.20;83.70
66013;DHT22;52783;50.502;8.190;2022-08-01T01:25:07;20.20;83.30
66013;DHT22;52783;50.502;8.190;2022-08-01T01:30:23;20.30;82.50
66013;DHT22;52783;50.502;8.190;2022-08-01T01:32:51;20.30;82.40
66013;DHT22;52783;50.502;8.190;2022-08-01T01:35:27;20.30;82.30
66013;DHT22;52783;50.502;8.190;2022-08-01T01:38:00;20.20;82.20
66013;DHT22;52783;50.502;8.190;2022-08-01T01:40:27;20.30;82.00
66013;DHT22;52783;50.502;8.190;2022-08-01T01:42:55;20.20;82.10
66013;DHT22;52783;50.502;8.190;2022-08-01T01:45:24;20.20;81.90
66013;DHT22;52783;50.502;8.190;2022-08-01T01:47:50;20.10;82.20
66013;DHT22;52783;50.502;8.190;2022-08-01T01:50:20;20.10;82.00
66013;DHT22;52783;50.502;8.190;2022-08-01T01:52:46;20.20;82.60
66013;DHT22;52783;50.502;8.190;2022-08-01T01:55:13;20.20;82.20
66013;DHT22;52783;50.502;8.190;2022-08-01T01:57:41;20.20;82.50
66013;DHT22;52783;50.502;8.190;2022-08-01T02:00:09;20.20;82.40
66013;DHT22;52783;50.502;8.190;2022-08-01T02:02:36;20.10;82.70
66013;DHT22;52783;50.502;8.190;2022-08-01T02:05:02;20.20;82.60
66013;DHT22;52783;50.502;8.190;2022-08-01T02:07:29;20.10;82.50
66013;DHT22;52783;50.502;8.190;2022-08-01T02:09:56;20.10;82.40
66013;DHT22;52783;50.502;8.190;2022-08-01T02:12:23;20.10;82.50
66013;DHT22;52783;50.502;8.190;2022-08-01T02:14:50;20.10;82.50
66013;DHT22;52783;50.502;8.190;2022-08-01T02:17:20;20.00;82.40
66013;DHT22;52783;50.502;8.190;2022-08-01T02:19:47;20.00;82.50
66013;DHT22;52783;50.502;8.190;2022-08-01T02:22:32;20.10;82.70
66013;DHT22;52783;50.502;8.190;2022-08-01T02:25:42;20.00;82.70
66013;DHT22;52783;50.502;8.190;2022-08-01T02:28:09;20.10;82.60
66013;DHT22;52783;50.502;8.190;2022-08-01T02:30:37;20.10;82.60
66013;DHT22;52783;50.502;8.190;2022-08-01T02:33:26;20.00;82.90
66013;DHT22;52783;50.502;8.190;2022-08-01T02:35:56;20.10;82.80
66013;DHT22;52783;50.502;8.190;2022-08-01T02:38:26;20.20;82.60
66013;DHT22;52783;50.502;8.190;2022-08-01T02:40:52;20.20;82.20
66013;DHT22;52783;50.502;8.190;2022-08-01T02:43:21;20.20;82.00
66013;DHT22;52783;50.502;8.190;2022-08-01T02:45:52;20.20;82.10
66013;DHT22;52783;50.502;8.190;2022-08-01T02:48:20;20.20;82.00
66013;DHT22;52783;50.502;8.190;2022-08-01T02:50:49;20.20;81.60
66013;DHT22;52783;50.502;8.190;2022-08-01T02:53:19;20.20;81.80
66013;DHT22;52783;50.502;8.190;2022-08-01T02:55:46;20.20;82.10
66013;DHT22;52783;50.502;8.190;2022-08-01T02:58:14;20.20;81.80
66013;DHT22;52783;50.502;8.190;2022-08-01T03:00:42;20.20;81.70
66013;DHT22;52783;50.502;8.190;2022-08-01T03:03:09;20.20;82.00
66013;DHT22;52783;50.502;8.190;2022-08-01T03:05:36;20.30;81.80
66013;DHT22;52783;50.502;8.190;2022-08-01T03:08:03;20.30;81.90
66013;DHT22;52783;50.502;8.190;2022-08-01T03:10:30;20.30;81.50
66013;DHT22;52783;50.502;8.190;2022-08-01T03:12:57;20.40;81.40
66013;DHT22;52783;50.502;8.190;2022-08-01T03:15:26;20.40;81.80
66013;DHT22;52783;50.502;8.190;2022-08-01T03:17:54;20.30;81.70
66013;DHT22;52783;50.502;8.190;2022-08-01T03:20:21;20.40;81.60
66013;DHT22;52783;50.502;8.190;2022-08-01T03:22:50;20.30;82.00
66013;DHT22;52783;50.502;8.190;2022-08-01T03:25:19;20.40;81.90
66013;DHT22;52783;50.502;8.190;2022-08-01T03:27:50;20.30;82.20
66013;DHT22;52783;50.502;8.190;2022-08-01T03:30:17;20.40;83.20
66013;DHT22;52783;50.502;8.190;2022-08-01T03:32:43;20.30;82.40
66013;DHT22;52783;50.502;8.190;2022-08-01T03:35:09;20.40;82.60
66013;DHT22;52783;50.502;8.190;2022-08-01T03:37:38;20.40;82.50
66013;DHT22;52783;50.502;8.190;2022-08-01T03:40:09;20.30;82.50
66013;DHT22;52783;50.502;8.190;2022-08-01T03:42:44;20.40;82.70
66013;DHT22;52783;50.502;8.190;2022-08-01T03:45:19;20.30;83.20
66013;DHT22;52783;50.502;8.190;2022-08-01T03:47:46;20.40;83.20
66013;DHT22;52783;50.502;8.190;2022-08-01T03:50:15;20.30;83.40
66013;DHT22;52783;50.502;8.190;2022-08-01T03:52:44;20.30;83.10
66013;DHT22;52783;50.502;8.190;2022-08-01T03:55:12;20.30;83.20
66013;DHT22;52783;50.502;8.190;2022-08-01T03:57:40;20.30;83.30
66013;DHT22;52783;50.502;8.190;2022-08-01T04:00:06;20.20;83.70
66013;DHT22;52783;50.502;8.190;2022-08-01T04:02:34;20.20;83.70
66013;DHT22;52783;50.502;8.190;2022-08-01T04:05:00;20.20;83.70
66013;DHT22;52783;50.502;8.190;2022-08-01T04:07:29;20.30;83.50
66013;DHT22;52783;50.502;8.190;2022-08-01T04:09:55;20.30;83.30
66013;DHT22;52783;50.502;8.190;2022-08-01T04:12:21;20.20;83.90
66013;DHT22;52783;50.502;8.190;2022-08-01T04:14:47;20.20;84.30
66013;DHT22;52783;50.502;8.190;2022-08-01T04:17:14;20.20;85.30
66013;DHT22;52783;50.502;8.190;2022-08-01T04:19:40;20.20;84.60
66013;DHT22;52783;50.502;8.190;2022-08-01T04:22:07;20.30;84.60
66013;DHT22;52783;50.502;8.190;2022-08-01T04:24:34;20.20;84.80
66013;DHT22;52783;50.502;8.190;2022-08-01T04:27:02;20.20;85.00
66013;DHT22;52783;50.502;8.190;2022-08-01T04:29:30;20.10;85.80
66013;DHT22;52783;50.502;8.190;2022-08-01T04:31:57;20.20;86.50
66013;DHT22;52783;50.502;8.190;2022-08-01T04:34:26;20.10;87.80
66013;DHT22;52783;50.502;8.190;2022-08-01T04:36:55;20.00;89.10
66013;DHT22;52783;50.502;8.190;2022-08-01T04:39:23;20.10;89.30
66013;DHT22;52783;50.502;8.190;2022-08-01T04:41:52;20.00;90.00
66013;DHT22;52783;50.502;8.190;2022-08-01T04:44:22;20.10;90.00
66013;DHT22;52783;50.502;8.190;2022-08-01T04:46:48;20.10;89.60
66013;DHT22;52783;50.502;8.190;2022-08-01T04:49:15;20.20;89.50
66013;DHT22;52783;50.502;8.190;2022-08-01T04:51:55;19.90;89.90
66013;DHT22;52783;50.502;8.190;2022-08-01T04:54:29;19.90;90.50
66013;DHT22;52783;50.502;8.190;2022-08-01T04:56:55;19.90;90.50
66013;DHT22;52783;50.502;8.190;2022-08-01T04:59:27;20.00;90.70
66013;DHT22;52783;50.502;8.190;2022-08-01T05:02:15;20.00;90.90
66013;DHT22;52783;50.502;8.190;2022-08-01T05:04:42;20.10;90.50
66013;DHT22;52783;50.502;8.190;2022-08-01T05:07:08;20.10;90.50
66013;DHT22;52783;50.502;8.190;2022-08-01T05:09:34;20.20;90.30
66013;DHT22;52783;50.502;8.190;2022-08-01T05:12:02;20.20;90.20
66013;DHT22;52783;50.502;8.190;2022-08-01T05:14:29;20.10;90.50
66013;DHT22;52783;50.502;8.190;2022-08-01T05:17:01;20.20;90.40
66013;DHT22;52783;50.502;8.190;2022-08-01T05:19:35;20.30;90.30
66013;DHT22;52783;50.502;8.190;2022-08-01T05:22:03;20.20;90.30
66013;DHT22;52783;50.502;8.190;2022-08-01T05:24:30;20.20;90.80
66013;DHT22;52783;50.502;8.190;2022-08-01T05:26:57;20.10;91.00
66013;DHT22;52783;50.502;8.190;2022-08-01T05:29:23;20.10;90.90
66013;DHT22;52783;50.502;8.190;2022-08-01T05:31:49;20.10;91.10
66013;DHT22;52783;50.502;8.190;2022-08-01T05:34:14;20.20;91.00
66013;DHT22;52783;50.502;8.190;2022-08-01T05:36:40;20.20;90.70
66013;DHT22;52783;50.502;8.190;2022-08-01T05:39:05;20.20;91.10
66013;DHT22;52783;50.502;8.190;2022-08-01T05:41:31;20.20;91.30
66013;DHT22;52783;50.502;8.190;2022-08-01T05:43:56;20.30;90.70
66013;DHT22;52783;50.502;8.190;2022-08-01T05:46:22;20.30;90.50
66013;DHT22;52783;50.502;8.190;2022-08-01T05:48:48;20.40;90.40
66013;DHT22;52783;50.502;8.190;2022-08-01T05:51:13;20.40;90.30
66013;DHT22;52783;50.502;8.190;2022-08-01T05:53:39;20.30;90.30
66013;DHT22;52783;50.502;8.190;2022-08-01T05:56:04;20.40;90.10
66013;DHT22;52783;50.502;8.190;2022-08-01T05:58:30;20.40;90.10
66013;DHT22;52783;50.502;8.190;2022-08-01T06:00:57;20.40;90.20
66013;DHT22;52783;50.502;8.190;2022-08-01T06:03:23;20.50;90.40
66013;DHT22;52783;50.502;8.190;2022-08-01T06:05:48;20.70;89.70
66013;DHT22;52783;50.502;8.190;2022-08-01T06:08:14;20.90;88.30
66013;DHT22;52783;50.502;8.190;2022-08-01T06:10:39;21.00;86.90
66013;DHT22;52783;50.502;8.190;2022-08-01T06:13:05;20.90;86.10
66013;DHT22;52783;50.502;8.190;2022-08-01T06:15:32;21.00;85.70
66013;DHT22;52783;50.502;8.190;2022-08-01T06:17:57;21.10;86.10
66013;DHT22;52783;50.502;8.190;2022-08-01T06:20:23;21.20;85.30
66013;DHT22;52783;50.502;8.190;2022-08-01T06:22:49;21.30;84.30
66013;DHT22;52783;50.502;8.190;2022-08-01T06:25:14;21.50;83.60
66013;DHT22;52783;50.502;8.190;2022-08-01T06:27:40;21.50;83.30
66013;DHT22;52783;50.502;8.190;2022-08-01T06:30:06;21.50;81.50
66013;DHT22;52783;50.502;8.190;2022-08-01T06:32:33;21.40;81.90
66013;DHT22;52783;50.502;8.190;2022-08-01T06:34:58;21.50;81.70
66013;DHT22;52783;50.502;8.190;2022-08-01T06:37:31;21.60;81.70
66013;DHT22;52783;50.502;8.190;2022-08-01T06:40:01;21.50;81.60
66013;DHT22;52783;50.502;8.190;2022-08-01T06:42:27;21.30;82.00
66013;DHT22;52783;50.502;8.190;2022-08-01T06:44:52;21.40;81.90
66013;DHT22;52783;50.502;8.190;2022-08-01T06:47:18;21.40;81.50
66013;DHT22;52783;50.502;8.190;2022-08-01T06:49:43;21.30;82.20
66013;DHT22;52783;50.502;8.190;2022-08-01T06:52:09;21.40;82.40
66013;DHT22;52783;50.502;8.190;2022-08-01T06:54:35;21.40;81.80
66013;DHT22;52783;50.502;8.190;2022-08-01T06:57:00;21.50;82.00
66013;DHT22;52783;50.502;8.190;2022-08-01T06:59:26;21.50;81.40
66013;DHT22;52783;50.502;8.190;2022-08-01T07:01:51;21.60;81.00
66013;DHT22;52783;50.502;8.190;2022-08-01T07:04:17;21.50;81.40
66013;DHT22;52783;50.502;8.190;2022-08-01T07:06:42;21.60;80.90
66013;DHT22;52783;50.502;8.190;2022-08-01T07:09:08;21.50;81.10
66013;DHT22;52783;50.502;8.190;2022-08-01T07:11:33;21.80;80.40
66013;DHT22;52783;50.502;8.190;2022-08-01T07:13:59;21.70;80.20
66013;DHT22;52783;50.502;8.190;2022-08-01T07:16:25;21.70;79.70
66013;DHT22;52783;50.502;8.190;2022-08-01T07:18:51;21.60;79.60
66013;DHT22;52783;50.502;8.190;2022-08-01T07:21:16;22.00;79.00
66013;DHT22;52783;50.502;8.190;2022-08-01T07:23:42;22.30;78.00
66013;DHT22;52783;50.502;8.190;2022-08-01T07:26:07;22.30;77.10
66013;DHT22;52783;50.502;8.190;2022-08-01T07:28:33;22.70;75.30
66013;DHT22;52783;50.502;8.190;2022-08-01T07:30:58;23.50;70.40
66013;DHT22;52783;50.502;8.190;2022-08-01T07:33:24;24.90;66.80
66013;DHT22;52783;50.502;8.190;2022-08-01T07:35:49;26.00;62.30
66013;DHT22;52783;50.502;8.190;2022-08-01T07:38:15;26.70;58.50
66013;DHT22;52783;50.502;8.190;2022-08-01T07:40:42;26.80;56.90
66013;DHT22;52783;50.502;8.190;2022-08-01T07:43:08;25.90;56.30
66013;DHT22;52783;50.502;8.190;2022-08-01T07:45:33;25.70;59.00
66013;DHT22;52783;50.502;8.190;2022-08-01T07:48:04;25.20;60.20
66013;DHT22;52783;50.502;8.190;2022-08-01T07:50:29;25.00;61.70
66013;DHT22;52783;50.502;8.190;2022-08-01T07:52:55;24.90;62.10
66013;DHT22;52783;50.502;8.190;2022-08-01T07:55:20;25.00;61.60
66013;DHT22;52783;50.502;8.190;2022-08-01T07:57:46;24.60;62.20
66013;DHT22;52783;50.502;8.190;2022-08-01T08:00:12;24.40;63.70
66013;DHT22;52783;50.502;8.190;2022-08-01T08:02:38;24.30;64.20
66013;DHT22;52783;50.502;8.190;2022-08-01T08:05:04;24.60;64.50
66013;DHT22;52783;50.502;8.190;2022-08-01T08:07:31;25.00;61.90
66013;DHT22;52783;50.502;8.190;2022-08-01T08:09:57;25.90;60.90
66013;DHT22;52783;50.502;8.190;2022-08-01T08:12:23;25.80;58.20
66013;DHT22;52783;50.502;8.190;2022-08-01T08:14:48;26.10;57.70
66013;DHT22;52783;50.502;8.190;2022-08-01T08:17:14;26.10;55.10
66013;DHT22;52783;50.502;8.190;2022-08-01T08:19:40;27.10;53.20
66013;DHT22;52783;50.502;8.190;2022-08-01T08:22:07;27.70;51.40
66013;DHT22;52783;50.502;8.190;2022-08-01T08:24:33;28.50;49.40
66013;DHT22;52783;50.502;8.190;2022-08-01T08:26:59;28.20;48.50
66013;DHT22;52783;50.502;8.190;2022-08-01T08:29:26;28.60;47.10
66013;DHT22;52783;50.502;8.190;2022-08-01T08:31:53;28.40;47.00
66013;DHT22;52783;50.502;8.190;2022-08-01T08:34:23;29.00;46.10
66013;DHT22;52783;50.502;8.190;2022-08-01T08:36:49;27.70;46.20
66013;DHT22;52783;50.502;8.190;2022-08-01T08:39:15;28.60;47.40
66013;DHT22;52783;50.502;8.190;2022-08-01T08:41:42;27.70;47.20
66013;DHT22;52783;50.502;8.190;2022-08-01T08:44:09;27.50;47.20
66013;DHT22;52783;50.502;8.190;2022-08-01T08:46:43;26.70;48.70
66013;DHT22;52783;50.502;8.190;2022-08-01T08:49:10;27.10;48.50
66013;DHT22;52783;50.502;8.190;2022-08-01T08:51:39;26.90;50.00
66013;DHT22;52783;50.502;8.190;2022-08-01T08:54:07;26.20;51.30
66013;DHT22;52783;50.502;8.190;2022-08-01T08:56:35;26.20;53.20
66013;DHT22;52783;50.502;8.190;2022-08-01T08:59:02;26.50;52.90
66013;DHT22;52783;50.502;8.190;2022-08-01T09:01:28;26.00;52.20
66013;DHT22;52783;50.502;8.190;2022-08-01T09:03:57;26.40;52.80
66013;DHT22;52783;50.502;8.190;2022-08-01T09:06:24;26.20;51.70
66013;DHT22;52783;50.502;8.190;2022-08-01T09:08:49;26.40;52.20
66013;DHT22;52783;50.502;8.190;2022-08-01T09:11:15;26.30;51.40
66013;DHT22;52783;50.502;8.190;2022-08-01T09:13:41;26.10;53.30
66013;DHT22;52783;50.502;8.190;2022-08-01T09:16:06;25.80;54.10
66013;DHT22;52783;50.502;8.190;2022-08-01T09:18:39;25.80;55.50
66013;DHT22;52783;50.502;8.190;2022-08-01T09:21:20;25.80;54.90
66013;DHT22;52783;50.502;8.190;2022-08-01T09:23:53;25.70;54.90
66013;DHT22;52783;50.502;8.190;2022-08-01T09:26:21;25.50;56.40
66013;DHT22;52783;50.502;8.190;2022-08-01T09:28:53;26.10;54.90
66013;DHT22;52783;50.502;8.190;2022-08-01T09:31:19;26.40;53.10
66013;DHT22;52783;50.502;8.190;2022-08-01T09:33:59;26.50;52.60
66013;DHT22;52783;50.502;8.190;2022-08-01T09:36:55;26.30;52.50
66013;DHT22;52783;50.502;8.190;2022-08-01T09:39:30;26.40;51.20
66013;DHT22;52783;50.502;8.190;2022-08-01T09:41:59;27.70;49.60
66013;DHT22;52783;50.502;8.190;2022-08-01T09:44:42;28.60;46.90
66013;DHT22;52783;50.502;8.190;2022-08-01T09:47:09;29.10;44.00
66013;DHT22;52783;50.502;8.190;2022-08-01T09:49:36;28.90;42.70
66013;DHT22;52783;50.502;8.190;2022-08-01T09:52:17;29.50;42.60
66013;DHT22;52783;50.502;8.190;2022-08-01T09:54:51;28.60;43.40
66013;DHT22;52783;50.502;8.190;2022-08-01T09:57:20;29.10;44.10
66013;DHT22;52783;50.502;8.190;2022-08-01T09:59:48;29.60;41.90
66013;DHT22;52783;50.502;8.190;2022-08-01T10:02:34;30.40;40.10
66013;DHT22;52783;50.502;8.190;2022-08-01T10:05:04;30.20;40.40
66013;DHT22;52783;50.502;8.190;2022-08-01T10:07:31;30.50;39.50
66013;DHT22;52783;50.502;8.190;2022-08-01T10:10:09;29.80;38.70
66013;DHT22;52783;50.502;8.190;2022-08-01T10:12:35;29.60;39.60
66013;DHT22;52783;50.502;8.190;2022-08-01T10:15:01;30.40;39.70
66013;DHT22;52783;50.502;8.190;2022-08-01T10:17:28;30.40;39.40
66013;DHT22;52783;50.502;8.190;2022-08-01T10:19:54;29.20;40.20
66013;DHT22;52783;50.502;8.190;2022-08-01T10:22:23;30.00;42.10
66013;DHT22;52783;50.502;8.190;2022-08-01T10:24:54;28.80;42.50
66013;DHT22;52783;50.502;8.190;2022-08-01T10:27:21;27.90;43.90
66013;DHT22;52783;50.502;8.190;2022-08-01T10:29:56;27.10;46.10
66013;DHT22;52783;50.502;8.190;2022-08-01T10:32:23;27.30;46.80
66013;DHT22;52783;50.502;8.190;2022-08-01T10:34:52;27.30;46.80
66013;DHT22;52783;50.502;8.190;2022-08-01T10:37:20;27.30;46.10
66013;DHT22;52783;50.502;8.190;2022-08-01T10:39:46;27.30;45.80
66013;DHT22;52783;50.502;8.190;2022-08-01T10:42:12;27.10;45.80
66013;DHT22;52783;50.502;8.190;2022-08-01T10:44:38;27.00;46.40
66013;DHT22;52783;50.502;8.190;2022-08-01T10:47:12;27.10;47.30
66013;DHT22;52783;50.502;8.190;2022-08-01T10:49:49;27.10;47.10
66013;DHT22;52783;50.502;8.190;2022-08-01T10:52:19;27.50;47.10
66013;DHT22;52783;50.502;8.190;2022-08-01T10:54:44;28.10;45.90
66013;DHT22;52783;50.502;8.190;2022-08-01T10:57:11;27.50;44.50
66013;DHT22;52783;50.502;8.190;2022-08-01T10:59:51;27.30;45.30
66013;DHT22;52783;50.502;8.190;2022-08-01T11:02:29;26.90;46.10
66013;DHT22;52783;50.502;8.190;2022-08-01T11:04:58;26.80;45.90
66013;DHT22;52783;50.502;8.190;2022-08-01T11:07:42;27.30;45.90
66013;DHT22;52783;50.502;8.190;2022-08-01T11:10:27;26.80;45.20
66013;DHT22;52783;50.502;8.190;2022-08-01T11:12:54;26.90;47.10
66013;DHT22;52783;50.502;8.190;2022-08-01T11:15:21;27.20;46.50
66013;DHT22;52783;50.502;8.190;2022-08-01T11:17:51;27.40;45.50
66013;DHT22;52783;50.502;8.190;2022-08-01T11:25:25;27.60;48.30
66013;DHT22;52783;50.502;8.190;2022-08-01T11:30:56;26.80;44.60
66013;DHT22;52783;50.502;8.190;2022-08-01T11:38:35;27.70;42.40
66013;DHT22;52783;50.502;8.190;2022-08-01T11:43:59;27.20;42.60
66013;DHT22;52783;50.502;8.190;2022-08-01T11:47:00;26.60;46.00
66013;DHT22;52783;50.502;8.190;2022-08-01T11:52:09;26.40;46.10
66013;DHT22;52783;50.502;8.190;2022-08-01T11:54:37;26.30;45.80
66013;DHT22;52783;50.502;8.190;2022-08-01T11:57:08;26.80;45.50
66013;DHT22;52783;50.502;8.190;2022-08-01T11:59:52;26.90;43.60
66013;DHT22;52783;50.502;8.190;2022-08-01T12:02:32;27.30;43.80
66013;DHT22;52783;50.502;8.190;2022-08-01T12:05:10;27.00;43.60
66013;DHT22;52783;50.502;8.190;2022-08-01T12:07:38;27.30;43.40
66013;DHT22;52783;50.502;8.190;2022-08-01T12:10:10;27.60;44.70
66013;DHT22;52783;50.502;8.190;2022-08-01T12:12:41;27.20;45.90
66013;DHT22;52783;50.502;8.190;2022-08-01T12:15:09;26.90;46.00
66013;DHT22;52783;50.502;8.190;2022-08-01T12:17:39;26.60;45.70
66013;DHT22;52783;50.502;8.190;2022-08-01T12:20:08;26.40;45.10
66013;DHT22;52783;50.502;8.190;2022-08-01T12:22:34;26.50;45.90
66013;DHT22;52783;50.502;8.190;2022-08-01T12:25:10;26.40;46.80
66013;DHT22;52783;50.502;8.190;2022-08-01T12:27:38;26.70;47.70
66013;DHT22;52783;50.502;8.190;2022-08-01T12:30:11;26.70;45.80
66013;DHT22;52783;50.502;8.190;2022-08-01T12:32:39;26.70;45.80
66013;DHT22;52783;50.502;8.190;2022-08-01T12:35:06;26.90;44.90
66013;DHT22;52783;50.502;8.190;2022-08-01T12:37:35;27.10;44.70
66013;DHT22;52783;50.502;8.190;2022-08-01T12:40:08;27.30;42.90
66013;DHT22;52783;50.502;8.190;2022-08-01T12:42:37;27.30;42.50
66013;DHT22;52783;50.502;8.190;2022-08-01T12:45:04;27.40;42.50
66013;DHT22;52783;50.502;8.190;2022-08-01T12:47:30;27.80;43.50
66013;DHT22;52783;50.502;8.190;2022-08-01T12:49:57;27.70;42.00
66013;DHT22;52783;50.502;8.190;2022-08-01T12:52:24;27.80;42.50
66013;DHT22;52783;50.502;8.190;2022-08-01T12:55:09;27.20;43.80
66013;DHT22;52783;50.502;8.190;2022-08-01T12:57:37;27.10;44.40
66013;DHT22;52783;50.502;8.190;2022-08-01T13:00:11;26.90;45.90
66013;DHT22;52783;50.502;8.190;2022-08-01T13:02:37;26.60;45.20
66013;DHT22;52783;50.502;8.190;2022-08-01T13:05:05;26.50;46.10
66013;DHT22;52783;50.502;8.190;2022-08-01T13:07:40;26.40;45.20
66013;DHT22;52783;50.502;8.190;2022-08-01T13:10:07;26.80;45.50
66013;DHT22;52783;50.502;8.190;2022-08-01T13:12:33;26.90;44.20
66013;DHT22;52783;50.502;8.190;2022-08-01T13:14:59;27.00;44.50
66013;DHT22;52783;50.502;8.190;2022-08-01T13:17:35;27.30;44.10
66013;DHT22;52783;50.502;8.190;2022-08-01T13:20:03;27.20;43.00
66013;DHT22;52783;50.502;8.190;2022-08-01T13:22:34;26.80;43.50
66013;DHT22;52783;50.502;8.190;2022-08-01T13:25:10;26.30;45.40
66013;DHT22;52783;50.502;8.190;2022-08-01T13:27:36;26.20;45.50
66013;DHT22;52783;50.502;8.190;2022-08-01T13:30:18;26.40;45.90
66013;DHT22;52783;50.502;8.190;2022-08-01T13:32:59;26.60;45.10
66013;DHT22;52783;50.502;8.190;2022-08-01T13:35:25;26.60;44.40
66013;DHT22;52783;50.502;8.190;2022-08-01T13:37:51;26.80;45.20
66013;DHT22;52783;50.502;8.190;2022-08-01T13:40:27;27.20;44.50
66013;DHT22;52783;50.502;8.190;2022-08-01T13:42:54;26.90;44.20
66013;DHT22;52783;50.502;8.190;2022-08-01T13:45:22;27.10;43.70
66013;DHT22;52783;50.502;8.190;2022-08-01T13:47:48;26.90;43.60
66013;DHT22;52783;50.502;8.190;2022-08-01T13:50:14;26.60;43.30
66013;DHT22;52783;50.502;8.190;2022-08-01T13:52:40;26.50;43.30
66013;DHT22;52783;50.502;8.190;2022-08-01T13:55:06;26.60;43.30
66013;DHT22;52783;50.502;8.190;2022-08-01T13:57:32;26.90;42.30
66013;DHT22;52783;50.502;8.190;2022-08-01T13:59:58;26.70;42.90
66013;DHT22;52783;50.502;8.190;2022-08-01T14:02:26;26.80;42.80
66013;DHT22;52783;50.502;8.190;2022-08-01T14:04:53;26.70;43.80
66013;DHT22;52783;50.502;8.190;2022-08-01T14:07:20;26.60;43.40
66013;DHT22;52783;50.502;8.190;2022-08-01T14:09:45;26.40;44.90
66013;DHT22;52783;50.502;8.190;2022-08-01T14:12:11;26.20;44.50
66013;DHT22;52783;50.502;8.190;2022-08-01T14:14:36;26.40;44.10
66013;DHT22;52783;50.502;8.190;2022-08-01T14:17:03;26.70;44.10
66013;DHT22;52783;50.502;8.190;2022-08-01T14:19:30;27.00;42.60
66013;DHT22;52783;50.502;8.190;2022-08-01T14:21:56;27.10;43.10
66013;DHT22;52783;50.502;8.190;2022-08-01T14:24:22;27.10;41.90
66013;DHT22;52783;50.502;8.190;2022-08-01T14:26:47;26.90;42.00
66013;DHT22;52783;50.502;8.190;2022-08-01T14:29:13;27.20;42.50
66013;DHT22;52783;50.502;8.190;2022-08-01T14:31:39;27.20;42.50
66013;DHT22;52783;50.502;8.190;2022-08-01T14:34:04;27.50;42.30
66013;DHT22;52783;50.502;8.190;2022-08-01T14:36:30;27.80;41.50
66013;DHT22;52783;50.502;8.190;2022-08-01T14:38:55;27.70;41.50
66013;DHT22;52783;50.502;8.190;2022-08-01T14:41:21;27.80;41.60
66013;DHT22;52783;50.502;8.190;2022-08-01T14:43:46;27.40;41.40
66013;DHT22;52783;50.502;8.190;2022-08-01T14:46:12;27.30;42.60
66013;DHT22;52783;50.502;8.190;2022-08-01T14:48:38;26.80;43.50
66013;DHT22;52783;50.502;8.190;2022-08-01T14:51:04;26.20;44.70
66013;DHT22;52783;50.502;8.190;2022-08-01T14:53:32;26.40;45.80
66013;DHT22;52783;50.502;8.190;2022-08-01T14:55:58;26.40;45.80
66013;DHT22;52783;50.502;8.190;2022-08-01T14:58:24;26.40;45.00
66013;DHT22;52783;50.502;8.190;2022-08-01T15:00:49;26.50;43.80
66013;DHT22;52783;50.502;8.190;2022-08-01T15:03:15;26.50;44.00
66013;DHT22;52783;50.502;8.190;2022-08-01T15:05:41;26.40;44.10
66013;DHT22;52783;50.502;8.190;2022-08-01T15:08:06;26.10;43.90
66013;DHT22;52783;50.502;8.190;2022-08-01T15:10:32;25.90;43.80
66013;DHT22;52783;50.502;8.190;2022-08-01T15:12:58;26.00;44.90
66013;DHT22;52783;50.502;8.190;2022-08-01T15:15:26;26.00;44.50
66013;DHT22;52783;50.502;8.190;2022-08-01T15:17:52;26.20;44.40
66013;DHT22;52783;50.502;8.190;2022-08-01T15:20:18;26.50;44.40
66013;DHT22;52783;50.502;8.190;2022-08-01T15:22:43;26.50;44.50
66013;DHT22;52783;50.502;8.190;2022-08-01T15:25:09;26.40;43.80
66013;DHT22;52783;50.502;8.190;2022-08-01T15:27:34;26.60;44.90
66013;DHT22;52783;50.502;8.190;2022-08-01T15:30:00;26.50;44.60
66013;DHT22;52783;50.502;8.190;2022-08-01T15:32:26;26.10;46.80
66013;DHT22;52783;50.502;8.190;2022-08-01T15:34:52;26.00;47.80
66013;DHT22;52783;50.502;8.190;2022-08-01T15:37:18;25.90;48.80
66013;DHT22;52783;50.502;8.190;2022-08-01T15:39:43;25.80;47.50
66013;DHT22;52783;50.502;8.190;2022-08-01T15:42:11;25.90;48.20
66013;DHT22;52783;50.502;8.190;2022-08-01T15:44:37;25.90;45.90
66013;DHT22;52783;50.502;8.190;2022-08-01T15:47:04;26.10;46.60
66013;DHT22;52783;50.502;8.190;2022-08-01T15:49:30;25.90;45.80
66013;DHT22;52783;50.502;8.190;2022-08-01T15:51:56;26.00;46.90
66013;DHT22;52783;50.502;8.190;2022-08-01T15:54:22;26.00;46.60
66013;DHT22;52783;50.502;8.190;2022-08-01T15:56:48;25.90;46.30
66013;DHT22;52783;50.502;8.190;2022-08-01T15:59:14;26.00;47.30
66013;DHT22;52783;50.502;8.190;2022-08-01T16:01:39;26.20;46.90
66013;DHT22;52783;50.502;8.190;2022-08-01T16:04:05;26.20;46.80